Time;durP1;ratioP1;P1;durP2;ratioP2;P2;SDS_P1;SDS_P2;PMS_P1;PMS_P2;Temp;Humidity;BMP_temperature;BMP_pressure;BME280_temperature;BME280_humidity;BME280_pressure;Samples;Min_cycle;Max_cycle;Signal;HPM_P1;HPM_P2
2024/01/15 00:01:56;;;;;;;34.42;16.55;;;1.60;99.90;;;;;;5091429;28;20438;-53
2024/01/15 00:04:22;;;;;;;31.42;17.10;;;1.60;99.90;;;;;;5091379;28;20065;-52
2024/01/15 00:06:49;;;;;;;30.88;17.20;;;1.60;99.90;;;;;;5092078;28;20032;-51
2024/01/15 00:09:14;;;;;;;34.85;16.88;;;1.60;99.90;;;;;;5091047;28;20016;-50
2024/01/15 00:11:40;;;;;;;31.25;16.75;;;1.60;99.90;;;;;;5091934;28;20366;-50
2024/01/15 00:14:06;;;;;;;37.70;17.35;;;1.60;99.90;;;;;;5092124;28;20080;-53
2024/01/15 00:16:31;;;;;;;34.33;16.35;;;1.60;99.90;;;;;;5091200;28;20105;-52
2024/01/15 00:18:57;;;;;;;29.98;15.32;;;1.60;99.90;;;;;;5092946;28;20019;-53
2024/01/15 00:21:23;;;;;;;33.38;15.07;;;1.60;99.90;;;;;;5091403;28;20024;-53
2024/01/15 00:23:48;;;;;;;33.58;15.05;;;1.60;99.90;;;;;;5093302;28;20028;-53
2024/01/15 00:26:15;;;;;;;31.38;14.10;;;1.60;99.90;;;;;;5091491;28;20028;-52
2024/01/15 00:28:40;;;;;;;28.48;15.10;;;1.70;99.90;;;;;;5092097;28;20020;-53
2024/01/15 00:31:06;;;;;;;29.08;13.80;;;1.70;99.90;;;;;;5092179;28;20031;-53
2024/01/15 00:33:32;;;;;;;25.42;13.18;;;1.70;99.90;;;;;;5092015;28;20082;-54
2024/01/15 00:35:57;;;;;;;25.27;13.18;;;1.70;99.90;;;;;;5093227;28;20020;-52
2024/01/15 00:38:23;;;;;;;23.00;13.35;;;1.70;99.90;;;;;;5092028;28;20038;-52
2024/01/15 00:40:49;;;;;;;27.67;14.02;;;1.70;99.90;;;;;;5093390;28;20039;-51
2024/01/15 00:43:14;;;;;;;27.30;13.10;;;1.70;99.90;;;;;;5091026;28;20013;-51
2024/01/15 00:45:40;;;;;;;25.13;11.70;;;1.70;99.90;;;;;;5092274;28;20463;-54
2024/01/15 00:48:06;;;;;;;23.83;11.27;;;1.80;99.90;;;;;;5093077;28;20042;-50
2024/01/15 00:50:32;;;;;;;20.60;10.77;;;1.80;99.90;;;;;;5091736;28;20058;-53
2024/01/15 00:52:57;;;;;;;25.67;12.40;;;1.80;99.90;;;;;;5093917;28;20503;-51
2024/01/15 00:55:23;;;;;;;22.15;10.65;;;1.90;99.90;;;;;;5090635;28;20072;-51
2024/01/15 00:57:49;;;;;;;28.50;11.55;;;1.90;99.90;;;;;;5093597;28;20493;-53
2024/01/15 01:00:15;;;;;;;23.95;11.80;;;1.80;99.90;;;;;;5091800;28;20071;-51
2024/01/15 01:02:40;;;;;;;21.48;10.35;;;1.80;99.90;;;;;;5092571;28;20016;-53
2024/01/15 01:05:06;;;;;;;21.13;10.45;;;1.80;99.90;;;;;;5093493;28;20054;-48
2024/01/15 01:07:32;;;;;;;20.73;10.82;;;1.80;99.90;;;;;;5091780;28;20025;-51
2024/01/15 01:09:57;;;;;;;17.85;8.48;;;1.80;99.90;;;;;;5092515;28;20035;-49
2024/01/15 01:12:23;;;;;;;17.80;8.43;;;1.70;99.90;;;;;;5092324;28;20427;-49
2024/01/15 01:14:48;;;;;;;16.15;9.00;;;1.70;99.90;;;;;;5093720;28;20031;-48
2024/01/15 01:17:14;;;;;;;23.42;9.00;;;1.70;99.90;;;;;;5091656;28;20385;-52
2024/01/15 01:19:40;;;;;;;17.15;8.98;;;1.70;99.90;;;;;;5094758;28;20114;-50
2024/01/15 01:22:05;;;;;;;20.08;9.07;;;1.80;99.90;;;;;;5097571;28;20146;-51
2024/01/15 01:24:31;;;;;;;21.70;8.85;;;1.70;99.90;;;;;;5095710;28;20385;-51
2024/01/15 01:26:56;;;;;;;25.20;10.65;;;1.80;99.90;;;;;;5096770;28;20027;-54
2024/01/15 01:29:22;;;;;;;19.38;8.95;;;1.80;99.90;;;;;;5095684;28;20461;-51
2024/01/15 01:31:48;;;;;;;17.27;8.80;;;1.80;99.90;;;;;;5097945;28;20016;-50
2024/01/15 01:34:15;;;;;;;16.05;9.25;;;1.70;99.90;;;;;;5096704;28;20024;-53
2024/01/15 01:36:41;;;;;;;17.30;8.73;;;1.70;99.90;;;;;;5096079;28;20036;-53
2024/01/15 01:39:06;;;;;;;16.83;9.40;;;1.70;99.90;;;;;;5094596;27;20544;-51
2024/01/15 01:41:32;;;;;;;19.13;9.00;;;1.70;99.90;;;;;;5094654;28;20020;-49
2024/01/15 01:43:58;;;;;;;23.75;8.43;;;1.70;99.90;;;;;;5098103;28;20081;-52
2024/01/15 01:46:25;;;;;;;14.15;8.18;;;1.70;99.90;;;;;;5096176;28;20020;-51
2024/01/15 01:48:52;;;;;;;21.00;8.40;;;1.70;99.90;;;;;;5097982;28;20091;-53
2024/01/15 01:51:18;;;;;;;20.00;7.88;;;1.70;99.90;;;;;;5093139;28;20016;-50
2024/01/15 01:53:45;;;;;;;17.38;8.18;;;1.80;99.90;;;;;;5097171;28;20052;-49
2024/01/15 01:56:12;;;;;;;19.30;7.03;;;1.80;99.90;;;;;;5096818;28;20046;-52
2024/01/15 01:58:38;;;;;;;18.65;7.18;;;1.80;99.90;;;;;;5093310;28;20051;-52
2024/01/15 02:01:04;;;;;;;22.77;7.72;;;1.80;99.90;;;;;;5097988;28;20690;-52
2024/01/15 02:03:30;;;;;;;17.75;5.80;;;1.80;99.90;;;;;;5094840;28;20262;-51
2024/01/15 02:05:56;;;;;;;16.17;6.50;;;1.80;99.90;;;;;;5094718;28;20235;-50
2024/01/15 02:08:22;;;;;;;13.32;5.55;;;1.80;99.90;;;;;;5090562;28;20141;-50
2024/01/15 02:10:48;;;;;;;14.18;5.85;;;1.90;99.90;;;;;;5096921;28;20040;-55
2024/01/15 02:13:14;;;;;;;12.73;6.07;;;1.90;99.90;;;;;;5096848;28;20032;-53
2024/01/15 02:15:40;;;;;;;18.67;6.60;;;1.90;99.90;;;;;;5096370;28;20052;-52
2024/01/15 02:18:09;;;;;;;14.00;5.35;;;1.90;99.90;;;;;;5098527;28;20554;-50
2024/01/15 02:20:35;;;;;;;14.27;5.50;;;1.90;99.90;;;;;;5095711;28;20024;-51
2024/01/15 02:23:06;;;;;;;13.25;5.47;;;1.90;99.90;;;;;;5098580;28;20019;-52
2024/01/15 02:25:32;;;;;;;17.23;5.35;;;1.90;99.90;;;;;;5095850;28;20050;-53
2024/01/15 02:27:58;;;;;;;17.38;5.80;;;1.90;99.90;;;;;;5098446;28;20504;-52
2024/01/15 02:30:25;;;;;;;12.23;5.43;;;1.80;99.90;;;;;;5095745;28;20035;-50
2024/01/15 02:32:51;;;;;;;21.92;5.97;;;1.90;99.90;;;;;;5098083;28;20012;-50
2024/01/15 02:35:17;;;;;;;17.35;6.28;;;1.90;99.90;;;;;;5096709;28;20024;-51
2024/01/15 02:37:43;;;;;;;21.15;5.50;;;1.90;99.90;;;;;;5096751;28;20016;-51
2024/01/15 02:40:08;;;;;;;26.67;5.68;;;1.90;99.90;;;;;;5097528;28;20103;-50
2024/01/15 02:42:34;;;;;;;12.38;4.65;;;1.90;99.90;;;;;;5096200;28;20090;-53
2024/01/15 02:45:00;;;;;;;17.90;4.88;;;1.90;99.90;;;;;;5099223;28;20035;-51
2024/01/15 02:47:25;;;;;;;16.85;4.30;;;1.90;99.90;;;;;;5095933;28;20016;-52
2024/01/15 02:49:51;;;;;;;18.50;4.22;;;1.90;99.90;;;;;;5097456;28;20024;-51
2024/01/15 02:52:17;;;;;;;14.20;3.75;;;2.00;99.90;;;;;;5096915;28;20016;-51
2024/01/15 02:54:42;;;;;;;15.82;4.43;;;2.00;99.90;;;;;;5096570;28;20388;-52
2024/01/15 02:57:08;;;;;;;16.67;4.60;;;2.00;99.90;;;;;;5098445;28;20457;-53
2024/01/15 02:59:33;;;;;;;9.32;3.88;;;2.10;99.90;;;;;;5096043;28;20020;-52
2024/01/15 03:01:59;;;;;;;9.23;3.85;;;2.00;99.90;;;;;;5098941;28;20051;-54
2024/01/15 03:04:25;;;;;;;11.15;3.60;;;2.00;99.90;;;;;;5096057;28;20028;-53
2024/01/15 03:06:50;;;;;;;10.52;3.45;;;2.10;99.90;;;;;;5098260;28;20481;-50
2024/01/15 03:09:16;;;;;;;16.70;3.75;;;2.10;99.90;;;;;;5096735;28;20023;-51
2024/01/15 03:11:41;;;;;;;16.92;4.10;;;2.10;99.90;;;;;;5096997;28;20358;-51
2024/01/15 03:14:07;;;;;;;11.02;3.20;;;2.10;99.90;;;;;;5098869;28;20053;-52
2024/01/15 03:16:32;;;;;;;14.18;2.83;;;2.10;99.90;;;;;;5092530;28;20016;-52
2024/01/15 03:18:58;;;;;;;10.68;3.40;;;2.20;99.90;;;;;;5097569;28;20027;-50
2024/01/15 03:21:24;;;;;;;15.77;4.38;;;2.20;99.90;;;;;;5095887;28;20370;-53
2024/01/15 03:23:49;;;;;;;10.82;3.47;;;2.20;99.90;;;;;;5097702;28;20503;-50
2024/01/15 03:26:15;;;;;;;17.85;3.13;;;2.20;99.90;;;;;;5096251;28;20127;-52
2024/01/15 03:28:40;;;;;;;20.20;3.70;;;2.10;99.90;;;;;;5095359;28;20046;-51
2024/01/15 03:31:07;;;;;;;13.05;3.13;;;2.10;99.90;;;;;;5098836;28;20023;-52
2024/01/15 03:33:33;;;;;;;12.95;3.40;;;2.10;99.90;;;;;;5096587;28;20476;-49
2024/01/15 03:35:59;;;;;;;13.65;4.00;;;2.10;99.90;;;;;;5096481;28;20062;-52
2024/01/15 03:38:24;;;;;;;12.40;3.33;;;2.10;99.90;;;;;;5096275;28;20089;-49
2024/01/15 03:40:50;;;;;;;19.88;4.80;;;2.10;99.90;;;;;;5096860;28;20465;-53
2024/01/15 03:43:16;;;;;;;14.90;3.30;;;2.10;99.90;;;;;;5098131;28;20038;-50
2024/01/15 03:45:41;;;;;;;11.60;3.05;;;2.10;99.90;;;;;;5096630;28;20016;-49
2024/01/15 03:48:07;;;;;;;12.02;4.13;;;2.10;99.90;;;;;;5099096;28;20346;-51
2024/01/15 03:50:32;;;;;;;12.55;3.50;;;2.20;99.90;;;;;;5096176;28;20047;-52
2024/01/15 03:52:58;;;;;;;19.98;3.95;;;2.20;99.90;;;;;;5099153;28;20400;-53
2024/01/15 03:55:23;;;;;;;16.33;4.07;;;2.20;99.90;;;;;;5096526;28;20023;-51
2024/01/15 03:57:49;;;;;;;14.57;2.78;;;2.20;99.90;;;;;;5097588;28;20474;-49
2024/01/15 04:00:17;;;;;;;20.20;3.20;;;2.20;99.90;;;;;;5098507;28;20027;-50
2024/01/15 04:02:44;;;;;;;17.90;3.30;;;2.20;99.90;;;;;;5097263;28;20023;-49
2024/01/15 04:05:09;;;;;;;12.93;2.83;;;2.20;99.90;;;;;;5099128;28;20380;-51
2024/01/15 04:07:35;;;;;;;10.57;2.90;;;2.20;99.90;;;;;;5096043;28;20024;-53
2024/01/15 04:10:01;;;;;;;19.60;4.05;;;2.20;99.90;;;;;;5099420;28;20020;-52
2024/01/15 04:12:26;;;;;;;11.00;3.60;;;2.20;99.90;;;;;;5097126;28;20388;-50
2024/01/15 04:14:52;;;;;;;15.85;3.38;;;2.20;99.90;;;;;;5098488;28;20021;-51
2024/01/15 04:17:17;;;;;;;15.05;2.53;;;2.20;99.90;;;;;;5098269;28;20019;-50
2024/01/15 04:19:47;;;;;;;8.93;2.53;;;2.20;99.90;;;;;;5096933;28;20020;-50
2024/01/15 04:22:13;;;;;;;13.27;2.35;;;2.20;99.90;;;;;;5099619;28;20019;-51
2024/01/15 04:24:39;;;;;;;11.65;2.53;;;2.20;99.90;;;;;;5096594;28;20031;-53
2024/01/15 04:27:05;;;;;;;15.63;1.88;;;2.30;99.90;;;;;;5088771;28;20024;-53
2024/01/15 04:29:31;;;;;;;10.00;2.70;;;2.30;99.90;;;;;;5088309;28;20043;-51
2024/01/15 04:31:56;;;;;;;10.98;2.72;;;2.20;99.90;;;;;;5089129;28;20091;-51
2024/01/15 04:34:22;;;;;;;12.82;4.05;;;2.20;99.90;;;;;;5089044;28;20392;-50
2024/01/15 04:36:47;;;;;;;7.00;2.33;;;2.20;99.90;;;;;;5095963;28;20019;-54
2024/01/15 04:39:13;;;;;;;16.90;2.30;;;2.20;99.90;;;;;;5100518;28;20038;-52
2024/01/15 04:41:38;;;;;;;10.82;2.10;;;2.20;99.90;;;;;;5096961;28;20032;-51
2024/01/15 04:44:04;;;;;;;12.43;2.45;;;2.20;99.90;;;;;;5100195;28;20431;-51
2024/01/15 04:46:30;;;;;;;9.70;2.58;;;2.20;99.90;;;;;;5097405;28;20024;-52
2024/01/15 04:48:55;;;;;;;15.98;2.47;;;2.10;99.90;;;;;;5099236;28;20016;-49
2024/01/15 04:51:21;;;;;;;17.58;2.65;;;2.10;99.90;;;;;;5097941;28;20493;-53
2024/01/15 04:53:46;;;;;;;13.77;3.03;;;2.00;99.90;;;;;;5102269;28;20028;-51
2024/01/15 04:56:12;;;;;;;17.45;3.40;;;1.90;99.90;;;;;;5103716;28;20104;-40
2024/01/15 04:58:37;;;;;;;11.18;2.92;;;1.90;99.90;;;;;;5101034;28;20012;-40
2024/01/15 05:01:03;;;;;;;13.55;2.92;;;1.90;99.90;;;;;;5103868;28;20039;-41
2024/01/15 05:03:29;;;;;;;15.55;2.55;;;1.90;99.90;;;;;;5101903;28;20027;-42
2024/01/15 05:05:55;;;;;;;11.63;4.68;;;1.90;99.90;;;;;;5103167;28;20020;-41
2024/01/15 05:08:21;;;;;;;15.52;3.10;;;1.90;99.90;;;;;;5103015;28;20019;-41
2024/01/15 05:10:47;;;;;;;12.63;2.58;;;1.90;99.90;;;;;;5102030;28;20016;-40
2024/01/15 05:13:13;;;;;;;10.60;2.65;;;1.90;99.90;;;;;;5096080;28;20031;-41
2024/01/15 05:15:38;;;;;;;8.30;2.72;;;1.90;99.90;;;;;;5093909;28;20020;-42
2024/01/15 05:18:04;;;;;;;18.65;3.33;;;2.00;99.90;;;;;;5097497;28;20019;-41
2024/01/15 05:20:30;;;;;;;8.63;2.42;;;2.00;99.90;;;;;;5101125;28;20026;-40
2024/01/15 05:22:55;;;;;;;16.52;3.08;;;2.00;99.90;;;;;;5100211;28;20424;-42
2024/01/15 05:25:21;;;;;;;11.10;2.85;;;1.90;99.90;;;;;;5102601;28;20427;-41
2024/01/15 05:27:46;;;;;;;16.70;2.88;;;1.90;99.90;;;;;;5100605;28;20063;-42
2024/01/15 05:30:12;;;;;;;8.65;2.33;;;2.00;99.90;;;;;;5088905;28;20319;-42
2024/01/15 05:32:38;;;;;;;9.32;3.00;;;2.00;99.90;;;;;;5101079;28;20081;-41
2024/01/15 05:35:04;;;;;;;11.43;2.95;;;2.00;99.90;;;;;;5104209;28;20103;-41
2024/01/15 05:37:29;;;;;;;11.15;2.88;;;2.10;99.90;;;;;;5101810;28;20023;-40
2024/01/15 05:39:55;;;;;;;14.60;2.72;;;2.10;99.90;;;;;;5101622;28;20032;-40
2024/01/15 05:42:20;;;;;;;12.38;2.13;;;2.20;99.90;;;;;;5103295;28;20532;-41
2024/01/15 05:44:46;;;;;;;7.95;2.35;;;2.20;99.90;;;;;;5100840;28;20020;-41
2024/01/15 05:47:12;;;;;;;13.38;3.63;;;2.20;99.90;;;;;;5104168;28;20344;-39
2024/01/15 05:49:37;;;;;;;17.13;2.72;;;2.20;99.90;;;;;;5100577;28;20496;-39
2024/01/15 05:52:03;;;;;;;6.22;2.42;;;2.10;99.90;;;;;;5101961;28;20107;-40
2024/01/15 05:54:29;;;;;;;9.23;2.60;;;2.00;99.90;;;;;;5095467;28;20376;-40
2024/01/15 05:56:55;;;;;;;20.17;4.28;;;1.90;99.90;;;;;;5103228;28;20028;-44
2024/01/15 05:59:20;;;;;;;9.88;3.22;;;1.90;99.90;;;;;;5102238;28;20027;-39
2024/01/15 06:01:46;;;;;;;13.63;4.03;;;1.80;99.90;;;;;;5102026;28;20138;-39
2024/01/15 06:04:11;;;;;;;21.92;3.40;;;1.70;99.90;;;;;;5103543;28;20392;-39
2024/01/15 06:06:37;;;;;;;20.10;3.70;;;1.70;99.90;;;;;;5101284;28;20424;-39
2024/01/15 06:09:05;;;;;;;15.05;2.58;;;1.80;99.90;;;;;;5104329;27;20018;-39
2024/01/15 06:11:31;;;;;;;16.88;2.97;;;1.70;99.90;;;;;;5100275;28;20480;-41
2024/01/15 06:13:57;;;;;;;17.00;2.97;;;1.70;99.90;;;;;;5102768;28;20028;-42
2024/01/15 06:16:24;;;;;;;11.43;2.38;;;1.70;99.90;;;;;;5103465;28;20428;-40
2024/01/15 06:18:50;;;;;;;7.97;2.53;;;1.80;99.90;;;;;;5100249;28;20020;-40
2024/01/15 06:21:16;;;;;;;12.95;3.15;;;1.80;99.90;;;;;;5100039;28;20032;-40
2024/01/15 06:23:42;;;;;;;10.80;2.75;;;1.80;99.90;;;;;;5101302;28;20028;-40
2024/01/15 06:26:07;;;;;;;12.38;3.00;;;1.80;99.90;;;;;;5103987;28;20382;-41
2024/01/15 06:28:33;;;;;;;12.55;3.08;;;1.80;99.90;;;;;;5101612;27;20069;-40
2024/01/15 06:30:59;;;;;;;11.98;3.13;;;1.90;99.90;;;;;;5103485;28;20376;-40
2024/01/15 06:33:24;;;;;;;14.02;3.10;;;1.80;99.90;;;;;;5103091;28;20023;-41
2024/01/15 06:35:50;;;;;;;17.05;2.70;;;1.80;99.90;;;;;;5102497;28;20016;-39
2024/01/15 06:38:16;;;;;;;11.98;2.38;;;1.80;99.90;;;;;;5104259;28;20028;-39
2024/01/15 06:40:45;;;;;;;17.02;2.83;;;1.80;99.90;;;;;;5098491;28;20397;-39
2024/01/15 06:43:13;;;;;;;17.42;4.53;;;1.80;99.90;;;;;;5104522;28;20548;-39
2024/01/15 06:45:38;;;;;;;12.60;2.60;;;1.90;99.90;;;;;;5101258;28;20032;-40
2024/01/15 06:48:04;;;;;;;13.18;3.58;;;1.90;99.90;;;;;;5104043;28;20540;-40
2024/01/15 06:50:30;;;;;;;12.00;2.85;;;1.90;99.90;;;;;;5101677;28;20035;-41
2024/01/15 06:52:56;;;;;;;12.07;3.20;;;1.90;99.90;;;;;;5101710;28;20470;-40
2024/01/15 06:55:21;;;;;;;9.43;3.00;;;1.90;99.90;;;;;;5103598;28;20023;-41
2024/01/15 06:57:47;;;;;;;17.95;3.92;;;1.90;99.90;;;;;;5101438;28;20019;-41
2024/01/15 07:00:13;;;;;;;11.13;3.30;;;1.90;99.90;;;;;;5103674;28;20496;-41
2024/01/15 07:02:38;;;;;;;10.27;2.80;;;1.90;99.90;;;;;;5101001;28;20027;-41
2024/01/15 07:05:05;;;;;;;8.15;2.40;;;1.80;99.90;;;;;;5102817;28;20011;-42
2024/01/15 07:07:31;;;;;;;10.52;2.63;;;1.80;99.90;;;;;;5102865;28;20141;-41
2024/01/15 07:09:56;;;;;;;8.65;3.05;;;1.80;99.90;;;;;;5101731;28;20024;-40
2024/01/15 07:12:23;;;;;;;14.60;3.25;;;1.80;99.90;;;;;;5103920;28;20027;-40
2024/01/15 07:14:48;;;;;;;12.10;3.15;;;1.70;99.90;;;;;;5097220;28;20016;-40
2024/01/15 07:17:14;;;;;;;13.00;4.50;;;1.70;99.90;;;;;;5103843;28;20026;-41
2024/01/15 07:19:39;;;;;;;10.85;3.38;;;1.70;99.90;;;;;;5101255;28;20036;-40
2024/01/15 07:22:05;;;;;;;8.98;3.17;;;1.70;99.90;;;;;;5104289;27;20512;-41
2024/01/15 07:24:31;;;;;;;9.88;3.58;;;1.70;99.90;;;;;;5098753;28;20031;-41
2024/01/15 07:26:56;;;;;;;12.50;3.40;;;1.70;99.90;;;;;;5103486;28;20059;-41
2024/01/15 07:29:22;;;;;;;6.95;2.83;;;1.70;99.90;;;;;;5103511;28;20023;-41
2024/01/15 07:31:51;;;;;;;11.63;3.97;;;1.70;99.90;;;;;;5102028;28;20056;-41
2024/01/15 07:34:17;;;;;;;20.75;3.65;;;1.70;99.90;;;;;;5104265;27;20020;-41
2024/01/15 07:36:46;;;;;;;8.88;3.08;;;1.80;99.90;;;;;;5100636;28;20540;-41
2024/01/15 07:39:12;;;;;;;18.02;3.88;;;1.80;99.90;;;;;;5103968;28;20055;-41
2024/01/15 07:41:38;;;;;;;17.83;4.32;;;1.80;99.90;;;;;;5101686;28;20421;-38
2024/01/15 07:44:04;;;;;;;14.80;3.40;;;1.80;99.90;;;;;;5104066;28;20028;-38
2024/01/15 07:46:30;;;;;;;15.40;3.83;;;1.90;99.90;;;;;;5101912;28;20076;-38
2024/01/15 07:48:57;;;;;;;14.93;3.83;;;1.90;99.90;;;;;;5102134;28;20526;-40
2024/01/15 07:51:26;;;;;;;15.63;4.22;;;1.90;99.90;;;;;;5100619;28;20481;-40
2024/01/15 07:53:54;;;;;;;6.45;3.70;;;1.90;99.90;;;;;;5103136;28;20447;-40
2024/01/15 07:56:21;;;;;;;10.10;4.18;;;2.00;99.90;;;;;;5104670;28;20023;-40
2024/01/15 07:58:47;;;;;;;14.90;4.40;;;2.00;99.90;;;;;;5102024;28;20103;-40
2024/01/15 08:01:12;;;;;;;12.13;4.13;;;2.00;99.90;;;;;;5104015;28;20103;-41
2024/01/15 08:03:38;;;;;;;13.05;4.25;;;2.10;99.90;;;;;;5102490;28;20028;-40
2024/01/15 08:06:05;;;;;;;11.18;4.47;;;2.00;99.90;;;;;;5103420;28;20342;-40
2024/01/15 08:08:31;;;;;;;14.02;4.78;;;2.00;99.90;;;;;;5102326;28;20030;-40
2024/01/15 08:10:56;;;;;;;12.90;3.67;;;2.00;99.90;;;;;;5103517;28;20490;-40
2024/01/15 08:13:22;;;;;;;14.65;4.25;;;2.00;99.90;;;;;;5104857;28;20061;-40
2024/01/15 08:15:55;;;;;;;11.00;3.90;;;2.00;99.90;;;;;;5102559;28;20481;-41
2024/01/15 08:18:21;;;;;;;15.43;4.35;;;2.00;99.90;;;;;;5104830;28;20020;-40
2024/01/15 08:20:47;;;;;;;10.85;3.80;;;2.00;99.90;;;;;;5102299;28;20049;-42
2024/01/15 08:23:12;;;;;;;10.65;3.10;;;2.00;99.90;;;;;;5105197;28;20047;-40
2024/01/15 08:25:38;;;;;;;10.65;3.50;;;2.00;99.90;;;;;;5102638;28;20031;-40
2024/01/15 08:28:04;;;;;;;12.98;3.33;;;2.00;99.90;;;;;;5108694;28;20081;-41
2024/01/15 08:30:29;;;;;;;16.63;3.72;;;2.00;99.90;;;;;;5107811;28;20032;-40
2024/01/15 08:32:56;;;;;;;10.25;3.13;;;2.10;99.90;;;;;;5108134;28;20043;-40
2024/01/15 08:35:22;;;;;;;9.73;2.88;;;2.10;99.90;;;;;;5109174;28;20051;-40
2024/01/15 08:37:52;;;;;;;13.50;2.92;;;2.10;99.90;;;;;;5107149;28;20019;-40
2024/01/15 08:40:17;;;;;;;15.70;5.03;;;2.10;99.90;;;;;;5109097;27;20040;-40
2024/01/15 08:42:43;;;;;;;12.85;3.80;;;2.10;99.90;;;;;;5106301;28;20015;-40
2024/01/15 08:45:09;;;;;;;6.75;2.50;;;2.10;99.90;;;;;;5102446;28;20032;-40
2024/01/15 08:47:35;;;;;;;12.85;3.50;;;2.10;99.90;;;;;;5107694;27;20547;-40
2024/01/15 08:50:03;;;;;;;11.48;3.55;;;2.10;99.90;;;;;;5101985;28;20385;-40
2024/01/15 08:52:28;;;;;;;11.00;4.68;;;2.20;99.90;;;;;;5109046;28;20026;-40
2024/01/15 08:54:55;;;;;;;8.60;3.70;;;2.20;99.90;;;;;;5108279;28;20021;-40
2024/01/15 08:57:22;;;;;;;9.85;4.28;;;2.30;99.90;;;;;;5102392;28;20481;-40
2024/01/15 08:59:47;;;;;;;10.52;4.07;;;2.30;99.90;;;;;;5107412;28;20028;-40
2024/01/15 09:02:13;;;;;;;9.40;4.30;;;2.30;99.90;;;;;;5109480;28;20035;-40
2024/01/15 09:04:39;;;;;;;11.52;4.07;;;2.30;99.90;;;;;;5107631;28;20027;-40
2024/01/15 09:07:05;;;;;;;10.95;4.78;;;2.30;99.90;;;;;;5107199;28;20069;-44
2024/01/15 09:09:30;;;;;;;10.25;5.15;;;2.20;99.90;;;;;;5108869;28;20125;-40
2024/01/15 09:11:56;;;;;;;10.80;4.85;;;2.20;99.90;;;;;;5106585;28;20024;-44
2024/01/15 09:14:24;;;;;;;7.43;4.95;;;2.10;99.90;;;;;;5109185;28;20055;-40
2024/01/15 09:16:49;;;;;;;9.38;4.53;;;2.10;99.90;;;;;;5107968;28;20022;-40
2024/01/15 09:19:15;;;;;;;10.60;4.88;;;2.10;99.90;;;;;;5107732;28;20334;-40
2024/01/15 09:21:40;;;;;;;13.25;5.00;;;2.10;99.90;;;;;;5106271;28;20027;-40
2024/01/15 09:24:06;;;;;;;16.60;5.75;;;2.10;99.90;;;;;;5109206;28;20023;-40
2024/01/15 09:26:32;;;;;;;10.57;4.82;;;2.00;99.90;;;;;;5108376;28;20445;-41
2024/01/15 09:28:58;;;;;;;12.32;5.70;;;1.80;99.90;;;;;;5108436;28;20027;-40
2024/01/15 09:31:23;;;;;;;13.85;5.35;;;1.90;99.90;;;;;;5107471;28;20055;-47
2024/01/15 09:33:52;;;;;;;10.23;5.68;;;1.80;99.90;;;;;;5107770;28;20488;-41
2024/01/15 09:36:17;;;;;;;12.77;5.70;;;1.90;99.90;;;;;;5109256;28;20019;-41
2024/01/15 09:38:43;;;;;;;12.95;5.95;;;1.80;99.90;;;;;;5106443;28;20681;-40
2024/01/15 09:41:09;;;;;;;14.90;6.35;;;1.80;99.90;;;;;;5109135;28;20026;-40
2024/01/15 09:43:37;;;;;;;11.02;6.20;;;1.80;99.90;;;;;;5108538;28;20020;-40
2024/01/15 09:46:03;;;;;;;16.63;6.20;;;1.80;99.90;;;;;;5094429;28;20503;-40
2024/01/15 09:48:29;;;;;;;16.33;6.53;;;1.80;99.90;;;;;;5100698;28;20028;-40
2024/01/15 09:50:58;;;;;;;16.25;6.60;;;1.90;99.90;;;;;;5108686;28;20047;-40
2024/01/15 09:53:25;;;;;;;15.07;5.88;;;1.80;99.90;;;;;;5109233;28;20020;-40
2024/01/15 09:55:53;;;;;;;8.05;5.20;;;1.80;99.90;;;;;;5106684;28;20276;-40
2024/01/15 09:58:19;;;;;;;11.45;5.45;;;1.80;99.90;;;;;;5109254;28;20028;-39
2024/01/15 10:00:47;;;;;;;9.38;6.38;;;1.90;99.90;;;;;;5106814;28;20023;-40
2024/01/15 10:03:13;;;;;;;13.05;5.70;;;1.90;99.90;;;;;;5101816;28;20417;-40
2024/01/15 10:05:39;;;;;;;8.63;5.63;;;2.00;99.90;;;;;;5108491;28;20076;-40
2024/01/15 10:08:05;;;;;;;12.05;6.70;;;2.00;99.90;;;;;;5107767;28;20024;-40
2024/01/15 10:10:31;;;;;;;10.70;6.55;;;2.00;99.90;;;;;;5109046;28;20080;-40
2024/01/15 10:12:58;;;;;;;15.27;8.00;;;2.00;99.90;;;;;;5108646;28;20409;-40
2024/01/15 10:15:26;;;;;;;13.43;7.65;;;1.90;99.90;;;;;;5109244;28;20050;-40
2024/01/15 10:17:52;;;;;;;17.25;8.00;;;1.90;99.90;;;;;;5108534;28;20020;-40
2024/01/15 10:20:17;;;;;;;15.90;7.32;;;1.90;99.90;;;;;;5109272;28;20110;-40
2024/01/15 10:22:46;;;;;;;11.07;6.53;;;2.00;99.90;;;;;;5108380;28;20038;-40
2024/01/15 10:25:13;;;;;;;11.70;5.88;;;2.00;99.90;;;;;;5109011;28;20350;-40
2024/01/15 10:27:38;;;;;;;22.13;5.78;;;2.10;99.90;;;;;;5108470;28;20047;-40
2024/01/15 10:30:06;;;;;;;15.90;6.40;;;2.20;99.90;;;;;;5108896;28;20409;-40
2024/01/15 10:32:31;;;;;;;19.65;5.82;;;2.30;99.90;;;;;;5106053;28;20028;-39
2024/01/15 10:34:57;;;;;;;15.65;5.82;;;2.40;99.90;;;;;;5108408;28;20027;-40
2024/01/15 10:37:24;;;;;;;11.35;5.18;;;2.40;99.90;;;;;;5106840;28;20444;-40
2024/01/15 10:39:50;;;;;;;19.35;6.18;;;2.50;99.90;;;;;;5107943;28;20124;-40
2024/01/15 10:42:17;;;;;;;22.33;6.28;;;2.60;99.90;;;;;;5107268;28;20077;-40
2024/01/15 10:44:46;;;;;;;24.15;7.13;;;2.60;99.90;;;;;;5108081;28;20019;-40
2024/01/15 10:47:12;;;;;;;17.88;6.35;;;2.60;99.90;;;;;;5102648;28;20046;-40
2024/01/15 10:49:39;;;;;;;15.40;5.70;;;2.60;99.90;;;;;;5107855;28;20112;-40
2024/01/15 10:52:05;;;;;;;15.90;6.03;;;2.60;99.90;;;;;;5109465;28;20020;-39
2024/01/15 10:54:32;;;;;;;15.63;6.43;;;2.60;99.90;;;;;;5109263;28;20024;-40
2024/01/15 10:56:58;;;;;;;14.35;4.95;;;2.50;99.90;;;;;;5108764;28;20021;-40
2024/01/15 10:59:24;;;;;;;12.05;4.55;;;2.50;99.90;;;;;;5108967;28;20026;-40
2024/01/15 11:01:53;;;;;;;17.58;8.00;;;2.50;99.90;;;;;;5109222;28;20108;-48
2024/01/15 11:04:19;;;;;;;10.85;4.22;;;2.50;99.90;;;;;;5109362;27;20596;-40
2024/01/15 11:06:47;;;;;;;7.43;4.15;;;2.40;99.90;;;;;;5100481;28;20023;-40
2024/01/15 11:09:15;;;;;;;16.90;3.80;;;2.50;99.90;;;;;;5109062;28;20477;-40
2024/01/15 11:11:43;;;;;;;9.13;4.00;;;2.50;99.90;;;;;;5108968;28;20110;-40
2024/01/15 11:14:09;;;;;;;14.13;5.03;;;2.50;99.90;;;;;;5109198;28;20028;-39
2024/01/15 11:16:56;;;;;;;11.18;4.07;;;2.50;99.90;;;;;;5098121;28;20016;-39
2024/01/15 11:19:21;;;;;;;12.23;4.05;;;2.50;99.90;;;;;;5088554;28;20308;-39
2024/01/15 11:21:47;;;;;;;10.52;4.32;;;2.50;99.90;;;;;;5088781;28;20250;-40
2024/01/15 11:24:34;;;;;;;15.40;5.20;;;2.60;99.90;;;;;;5088933;28;20028;-39
2024/01/15 11:27:00;;;;;;;10.10;4.10;;;2.60;99.90;;;;;;5088656;28;20061;-39
2024/01/15 11:29:29;;;;;;;10.25;4.72;;;2.60;99.90;;;;;;5088136;28;20028;-39
2024/01/15 11:31:54;;;;;;;7.60;4.53;;;2.70;99.90;;;;;;5088295;28;20024;-39
2024/01/15 11:34:21;;;;;;;13.43;5.28;;;2.70;99.90;;;;;;5088689;28;20416;-39
2024/01/15 11:36:49;;;;;;;11.00;5.07;;;2.70;99.90;;;;;;5088125;28;20012;-38
2024/01/15 11:39:42;;;;;;;9.98;4.80;;;2.70;99.90;;;;;;5087325;28;20111;-41
2024/01/15 11:42:09;;;;;;;11.55;5.45;;;2.60;99.90;;;;;;5086355;28;20081;-40
2024/01/15 11:44:35;;;;;;;12.00;5.20;;;2.60;99.90;;;;;;5088489;28;20031;-39
2024/01/15 11:47:05;;;;;;;13.43;6.18;;;2.60;99.90;;;;;;5087818;28;20024;-39
2024/01/15 11:50:02;;;;;;;13.65;5.55;;;2.60;99.90;;;;;;5087737;28;20039;-39
2024/01/15 11:52:36;;;;;;;13.48;5.70;;;2.60;99.90;;;;;;5086237;28;20020;-40
2024/01/15 11:55:16;;;;;;;14.02;5.82;;;2.60;99.90;;;;;;5087966;28;20020;-39
2024/01/15 11:57:57;;;;;;;12.68;5.88;;;2.60;99.90;;;;;;5087536;28;20451;-41
2024/01/15 12:00:23;;;;;;;;;;;2.60;99.90;;;;;;5085606;28;20031;-40
2024/01/15 12:02:51;;;;;;;13.60;5.57;;;2.50;99.90;;;;;;5086031;28;19908;-44
2024/01/15 12:05:21;;;;;;;10.93;4.32;;;2.50;99.90;;;;;;5088110;28;20055;-40
2024/01/15 12:07:48;;;;;;;8.70;4.87;;;2.60;99.90;;;;;;5087769;28;20042;-40
2024/01/15 12:10:21;;;;;;;14.38;3.90;;;2.60;99.90;;;;;;5088055;28;20090;-42
2024/01/15 12:12:58;;;;;;;5.90;2.90;;;2.60;99.90;;;;;;5084418;28;20438;-40
2024/01/15 12:15:25;;;;;;;7.97;3.17;;;2.60;99.90;;;;;;5088168;28;20027;-41
2024/01/15 12:17:53;;;;;;;7.53;3.58;;;2.60;99.90;;;;;;5088200;28;20429;-40
2024/01/15 12:20:19;;;;;;;13.93;3.45;;;2.60;99.90;;;;;;5087367;28;20032;-39
2024/01/15 12:22:46;;;;;;;10.07;3.55;;;2.50;99.90;;;;;;5089128;28;20032;-39
2024/01/15 12:25:11;;;;;;;10.07;3.00;;;2.50;99.90;;;;;;5089530;28;20020;-38
2024/01/15 12:27:37;;;;;;;8.05;3.28;;;2.60;99.90;;;;;;5089299;28;20105;-39
2024/01/15 12:30:03;;;;;;;12.43;3.25;;;2.60;99.90;;;;;;5088142;28;20105;-39
2024/01/15 12:32:29;;;;;;;11.43;3.22;;;2.60;99.90;;;;;;5089613;28;20227;-39
2024/01/15 12:34:55;;;;;;;16.33;3.70;;;2.60;99.90;;;;;;5090363;28;20107;-39
2024/01/15 12:37:21;;;;;;;10.38;3.70;;;2.60;99.90;;;;;;5089607;28;20398;-39
2024/01/15 12:39:47;;;;;;;8.63;2.97;;;2.60;99.90;;;;;;5090113;28;20032;-39
2024/01/15 12:42:17;;;;;;;20.00;6.57;;;2.50;99.90;;;;;;5089757;28;20078;-39
2024/01/15 12:44:44;;;;;;;8.97;3.17;;;2.50;99.90;;;;;;5090615;28;20477;-39